Time;durP1;ratioP1;P1;durP2;ratioP2;P2;SDS_P1;SDS_P2;PMS_P1;PMS_P2;Temp;Humidity;BMP_temperature;BMP_pressure;BME280_temperature;BME280_humidity;BME280_pressure;Samples;Min_cycle;Max_cycle;Signal;HPM_P1;HPM_P2
2023/12/08 00:01:29;;;;;;;261.15;10.45;;;;;;;21.93;53.57;99468.50;7292859;19;129912;-38
2023/12/08 00:03:54;;;;;;;212.07;8.82;;;;;;;21.93;52.99;99463.25;7293334;19;129565;-37
2023/12/08 00:06:20;;;;;;;263.23;10.82;;;;;;;21.94;53.73;99464.94;7287154;19;130075;-34
2023/12/08 00:08:45;;;;;;;235.85;9.68;;;;;;;21.75;53.23;99438.78;7291549;19;132185;-40
2023/12/08 00:11:13;;;;;;;267.40;10.83;;;;;;;21.90;53.05;99453.09;7292178;19;131951;-37
2023/12/08 00:13:39;;;;;;;238.38;9.63;;;;;;;21.89;53.81;99440.97;7293480;19;131461;-40
2023/12/08 00:16:04;;;;;;;179.43;7.78;;;;;;;21.88;53.36;99444.53;7291859;19;130160;-41
2023/12/08 00:18:30;;;;;;;295.42;11.80;;;;;;;21.88;53.38;99439.31;7287883;19;130715;-40
2023/12/08 00:20:55;;;;;;;219.73;9.33;;;;;;;21.89;53.38;99435.75;7293549;19;131715;-42
2023/12/08 00:23:21;;;;;;;214.10;8.55;;;;;;;21.87;53.17;99440.28;7292726;19;129766;-37
2023/12/08 00:25:46;;;;;;;189.33;7.93;;;;;;;21.86;53.68;99429.97;7292057;19;130950;-38
2023/12/08 00:28:11;;;;;;;290.43;11.70;;;;;;;21.83;53.95;99428.44;7289426;19;131893;-40
2023/12/08 00:30:37;;;;;;;214.20;8.47;;;;;;;21.82;53.31;99418.13;7290437;19;130350;-39
2023/12/08 00:33:02;;;;;;;199.45;8.30;;;;;;;21.85;53.18;99413.44;7292737;19;131243;-36
2023/12/08 00:35:28;;;;;;;223.43;9.10;;;;;;;21.85;53.15;99402.13;7289020;19;129415;-41
2023/12/08 00:37:53;;;;;;;234.87;9.37;;;;;;;21.67;53.18;99369.84;7289541;19;132999;-38
2023/12/08 00:40:19;;;;;;;244.55;9.70;;;;;;;21.85;53.42;99395.13;7289148;19;130870;-37
2023/12/08 00:42:44;;;;;;;232.65;9.65;;;;;;;21.83;53.28;99399.66;7291307;19;129562;-41
2023/12/08 00:45:10;;;;;;;189.27;8.03;;;;;;;21.84;53.83;99396.09;7291359;19;130146;-36
2023/12/08 00:47:35;;;;;;;247.93;9.83;;;;;;;21.83;53.94;99399.66;7289393;19;129628;-39
2023/12/08 00:50:00;;;;;;;210.73;8.65;;;;;;;21.81;53.58;99393.78;7291155;19;130781;-38
2023/12/08 00:52:26;;;;;;;267.95;10.93;;;;;;;21.83;53.48;99404.91;7290870;19;129544;-41
2023/12/08 00:54:51;;;;;;;222.30;8.88;;;;;;;21.78;53.53;99393.25;7291261;19;130143;-40
2023/12/08 00:57:17;;;;;;;257.88;10.70;;;;;;;21.81;53.53;99400.78;7287489;19;130300;-37
2023/12/08 00:59:42;;;;;;;322.05;13.20;;;;;;;21.81;53.19;99393.78;7290607;19;132379;-38
2023/12/08 01:02:07;;;;;;;266.73;11.03;;;;;;;21.82;53.85;99397.19;7286511;19;129857;-39
2023/12/08 01:04:34;;;;;;;323.35;12.80;;;;;;;21.80;53.48;99396.50;7288666;19;130340;-42
2023/12/08 01:06:59;;;;;;;244.43;9.93;;;;;;;21.60;53.70;99361.75;7282046;19;129652;-37
2023/12/08 01:09:25;;;;;;;304.63;13.07;;;;;;;21.63;53.49;99361.47;7284906;19;131668;-39
2023/12/08 01:11:50;;;;;;;251.40;10.20;;;;;;;21.76;53.51;99387.28;7285660;19;131175;-39
2023/12/08 01:14:16;;;;;;;276.40;11.00;;;;;;;21.80;53.47;99393.91;7290049;19;130245;-41
2023/12/08 01:16:41;;;;;;;170.65;7.20;;;;;;;21.80;53.96;99379.03;7288979;19;129656;-42
2023/12/08 01:19:10;;;;;;;178.00;7.67;;;;;;;21.76;53.56;99385.53;7282660;19;130010;-40
2023/12/08 01:21:36;;;;;;;327.13;13.93;;;;;;;21.77;53.29;99379.31;7289983;19;129891;-38
2023/12/08 01:24:02;;;;;;;212.93;8.77;;;;;;;21.77;53.67;99370.63;7288401;19;131014;-38
2023/12/08 01:26:27;;;;;;;355.58;15.05;;;;;;;21.73;53.45;99357.00;7285737;19;129211;-40
2023/12/08 01:28:53;;;;;;;246.85;9.95;;;;;;;21.77;53.73;99368.03;7290045;19;130974;-42
2023/12/08 01:31:18;;;;;;;269.65;11.07;;;;;;;21.75;53.33;99357.69;7288296;19;130227;-40
2023/12/08 01:33:43;;;;;;;271.25;11.55;;;;;;;21.80;53.82;99365.09;7288725;19;130809;-36
2023/12/08 01:36:10;;;;;;;235.68;9.55;;;;;;;21.76;53.67;99356.75;7282548;19;130329;-37
2023/12/08 01:38:35;;;;;;;258.42;10.30;;;;;;;21.72;53.78;99344.88;7288185;19;129655;-41
2023/12/08 01:41:00;;;;;;;278.80;11.20;;;;;;;21.74;53.43;99356.03;7289587;19;129437;-38
2023/12/08 01:43:26;;;;;;;243.05;9.77;;;;;;;21.77;53.98;99347.91;7290912;19;130020;-42
2023/12/08 01:45:54;;;;;;;201.00;8.30;;;;;;;21.61;53.63;99321.56;7291061;19;130412;-39
2023/12/08 01:48:19;;;;;;;280.60;11.38;;;;;;;21.77;53.84;99347.09;7287465;19;129897;-41
2023/12/08 01:50:44;;;;;;;277.83;11.07;;;;;;;21.77;53.82;99347.91;7288785;19;129707;-37
2023/12/08 01:53:10;;;;;;;205.90;8.43;;;;;;;21.59;53.45;99318.25;7289627;19;130868;-41
2023/12/08 01:55:35;;;;;;;245.98;10.32;;;;;;;21.71;53.38;99337.19;7289493;19;130672;-39
2023/12/08 01:58:01;;;;;;;224.93;8.97;;;;;;;21.56;54.11;99296.78;7288260;19;129856;-41
2023/12/08 02:00:27;;;;;;;250.02;10.23;;;;;;;21.72;53.63;99329.19;7289264;19;129314;-41
2023/12/08 02:02:54;;;;;;;209.13;8.53;;;;;;;21.74;53.19;99329.03;7289876;19;130839;-39
2023/12/08 02:05:20;;;;;;;178.38;7.45;;;;;;;21.75;53.56;99323.66;7285930;19;132098;-41
2023/12/08 02:07:46;;;;;;;264.33;10.67;;;;;;;21.73;53.70;99319.56;7282077;19;129638;-42
2023/12/08 02:10:11;;;;;;;217.43;9.10;;;;;;;21.71;53.58;99317.09;7285631;19;129278;-37
2023/12/08 02:12:38;;;;;;;248.05;10.00;;;;;;;21.73;53.67;99314.31;7287182;19;129737;-39
2023/12/08 02:15:04;;;;;;;218.83;9.10;;;;;;;21.77;53.97;99315.69;7289638;19;129643;-39
2023/12/08 02:17:38;;;;;;;340.73;13.47;;;;;;;21.73;53.58;99314.31;7285632;19;130185;-36
2023/12/08 02:20:05;;;;;;;221.65;9.02;;;;;;;21.75;53.99;99326.28;7289930;19;130966;-40
2023/12/08 02:22:31;;;;;;;225.55;9.40;;;;;;;21.76;53.51;99317.50;7287849;19;132284;-36
2023/12/08 02:24:56;;;;;;;214.55;8.85;;;;;;;21.75;53.84;99309.78;7288343;19;131561;-40
2023/12/08 02:27:22;;;;;;;292.10;11.93;;;;;;;21.73;53.49;99307.28;7288288;19;130541;-41
2023/12/08 02:29:47;;;;;;;171.52;6.90;;;;;;;21.76;53.43;99303.56;7288302;19;129679;-40
2023/12/08 02:32:25;;;;;;;203.87;8.27;;;;;;;21.73;54.17;99312.50;7288177;19;129183;-37
2023/12/08 02:34:52;;;;;;;312.00;13.27;;;;;;;21.52;53.43;99271.88;7285377;19;130183;-38
2023/12/08 02:37:20;;;;;;;247.07;9.93;;;;;;;21.65;53.49;99306.38;7286246;19;130765;-41
2023/12/08 02:39:48;;;;;;;228.00;9.50;;;;;;;21.64;54.06;99304.72;7288513;19;129798;-39
2023/12/08 02:42:14;;;;;;;210.25;8.60;;;;;;;21.64;53.90;99297.72;7289437;19;130993;-38
2023/12/08 02:44:39;;;;;;;249.55;10.65;;;;;;;21.44;54.01;99251.72;7287123;19;130368;-41
2023/12/08 02:47:05;;;;;;;219.07;8.98;;;;;;;21.58;54.22;99274.75;7287334;19;129769;-41
2023/12/08 02:49:30;;;;;;;286.80;10.80;;;;;;;21.62;53.54;99273.47;7288337;19;131133;-39
2023/12/08 02:51:55;;;;;;;377.63;15.47;;;;;;;21.61;54.13;99274.47;7287445;19;131994;-41
2023/12/08 02:54:21;;;;;;;324.67;13.48;;;;;;;21.62;53.70;99270.88;7280979;19;131110;-38
2023/12/08 02:56:46;;;;;;;293.38;11.25;;;;;;;21.62;54.28;99278.72;7282598;19;130340;-40
2023/12/08 02:59:11;;;;;;;380.47;15.33;;;;;;;21.48;53.90;99247.84;7283377;19;130393;-39
2023/12/08 03:01:37;;;;;;;380.98;15.55;;;;;;;21.60;54.32;99264.94;7279783;19;131503;-39
2023/12/08 03:04:02;;;;;;;267.88;10.15;;;;;;;21.58;53.84;99261.69;7289563;19;130806;-40
2023/12/08 03:06:27;;;;;;;341.52;13.98;;;;;;;21.59;54.23;99260.69;7283644;19;131270;-38
2023/12/08 03:08:53;;;;;;;259.42;10.05;;;;;;;21.58;54.39;99253.84;7288489;19;130889;-39
2023/12/08 03:11:18;;;;;;;215.13;8.60;;;;;;;21.62;53.85;99249.94;7293442;19;130291;-40
2023/12/08 03:13:44;;;;;;;268.73;10.17;;;;;;;21.59;54.00;99245.00;7291330;19;130319;-41
2023/12/08 03:16:09;;;;;;;345.90;13.50;;;;;;;21.60;53.95;99241.41;7292508;19;129680;-39
2023/12/08 03:18:34;;;;;;;259.60;10.37;;;;;;;21.62;53.96;99233.41;7287328;19;132067;-38
2023/12/08 03:21:00;;;;;;;226.00;8.73;;;;;;;21.65;53.94;99227.91;7292542;19;131320;-39
2023/12/08 03:23:25;;;;;;;291.25;11.23;;;;;;;21.56;53.73;99219.16;7288930;19;132196;-41
2023/12/08 03:25:50;;;;;;;306.63;11.93;;;;;;;21.65;53.65;99233.94;7294842;19;131109;-40
2023/12/08 03:28:16;;;;;;;222.80;8.97;;;;;;;21.62;53.72;99228.19;7291336;19;131311;-40
2023/12/08 03:30:41;;;;;;;150.43;6.05;;;;;;;21.46;53.68;99189.63;7290774;19;130165;-37
2023/12/08 03:33:06;;;;;;;232.13;8.82;;;;;;;21.61;53.57;99211.69;7295179;19;130291;-38
2023/12/08 03:35:32;;;;;;;288.43;11.03;;;;;;;21.58;53.68;99211.16;7290510;19;130253;-40
2023/12/08 03:37:57;;;;;;;211.95;8.35;;;;;;;21.58;53.76;99232.06;7292944;19;130790;-41
2023/12/08 03:40:22;;;;;;;271.90;10.85;;;;;;;21.57;53.59;99233.84;7295161;19;131060;-43
2023/12/08 03:42:47;;;;;;;253.73;9.85;;;;;;;21.60;54.23;99219.69;7293733;19;131115;-41
2023/12/08 03:45:13;;;;;;;207.55;8.50;;;;;;;21.59;54.00;99213.63;7295011;19;129667;-37
2023/12/08 03:47:38;;;;;;;224.85;9.10;;;;;;;21.57;53.89;99226.00;7292199;19;129829;-40
2023/12/08 03:50:04;;;;;;;171.70;7.00;;;;;;;21.57;54.25;99222.56;7292883;19;129517;-39
2023/12/08 03:52:29;;;;;;;251.13;9.87;;;;;;;21.52;54.44;99220.41;7293957;19;130194;-40
2023/12/08 03:54:55;;;;;;;173.23;7.10;;;;;;;21.55;54.37;99206.22;7291590;19;130065;-39
2023/12/08 03:57:20;;;;;;;208.57;8.45;;;;;;;21.55;53.89;99199.19;7289154;19;129542;-35
2023/12/08 03:59:46;;;;;;;327.23;12.70;;;;;;;21.52;54.40;99181.16;7288699;19;130482;-39
2023/12/08 04:02:11;;;;;;;235.05;9.07;;;;;;;21.50;53.78;99172.63;7294603;19;132335;-41
2023/12/08 04:04:36;;;;;;;277.42;10.95;;;;;;;21.52;53.69;99160.25;7293182;19;131309;-41
2023/12/08 04:07:02;;;;;;;204.75;8.18;;;;;;;21.52;53.80;99152.41;7290024;19;130362;-37
2023/12/08 04:09:29;;;;;;;197.40;7.75;;;;;;;21.52;53.77;99141.94;7292492;19;129831;-37
2023/12/08 04:11:55;;;;;;;223.23;8.95;;;;;;;21.50;53.80;99130.78;7294366;19;130598;-41
2023/12/08 04:14:20;;;;;;;255.20;9.98;;;;;;;21.50;54.18;99119.53;7292472;19;130920;-43
2023/12/08 04:16:45;;;;;;;225.82;9.07;;;;;;;21.48;53.89;99127.53;7290334;19;131155;-40
2023/12/08 04:19:12;;;;;;;300.00;11.80;;;;;;;21.54;54.17;99136.56;7293363;19;131258;-39
2023/12/08 04:21:38;;;;;;;195.10;8.00;;;;;;;21.48;53.81;99148.47;7293893;19;131487;-42
2023/12/08 04:24:03;;;;;;;236.30;9.35;;;;;;;21.51;53.78;99144.69;7294099;19;129480;-37
2023/12/08 04:26:29;;;;;;;284.13;11.27;;;;;;;21.53;54.24;99135.75;7291214;19;129627;-38
2023/12/08 04:28:54;;;;;;;280.67;10.77;;;;;;;21.49;54.48;99147.47;7290316;19;132777;-39
2023/12/08 04:31:20;;;;;;;225.15;8.82;;;;;;;21.47;54.36;99136.34;7290470;19;131564;-42
2023/12/08 04:33:47;;;;;;;238.83;9.70;;;;;;;21.48;54.11;99137.16;7292192;19;129341;-42
2023/12/08 04:36:12;;;;;;;;;;;;;;;21.48;54.96;99143.22;7290961;19;129766;-40
2023/12/08 04:38:38;;;;;;;236.35;9.40;;;;;;;21.47;53.81;99131.09;7289861;19;129708;-40
2023/12/08 04:41:03;;;;;;;219.67;8.77;;;;;;;21.47;54.63;99125.06;7292537;19;130391;-40
2023/12/08 04:43:28;;;;;;;231.18;9.02;;;;;;;21.46;54.59;99119.00;7292010;19;131449;-37
2023/12/08 04:45:55;;;;;;;236.30;9.37;;;;;;;21.46;54.34;99121.63;7291106;19;130320;-37
2023/12/08 04:48:20;;;;;;;159.70;6.50;;;;;;;21.46;54.13;99119.00;7290875;19;131205;-40
2023/12/08 04:50:46;;;;;;;246.60;9.83;;;;;;;21.44;54.54;99115.72;7289490;19;130253;-40
2023/12/08 04:53:11;;;;;;;166.57;6.57;;;;;;;21.43;54.10;99111.47;7292488;19;129778;-41
2023/12/08 04:55:37;;;;;;;235.35;9.07;;;;;;;21.43;54.24;99116.69;7291913;19;129516;-37
2023/12/08 04:58:02;;;;;;;194.03;7.80;;;;;;;21.40;54.52;99114.34;7290635;19;129572;-40
2023/12/08 05:00:28;;;;;;;250.00;9.80;;;;;;;21.43;54.58;99127.16;7291195;19;130144;-40
2023/12/08 05:02:53;;;;;;;245.45;9.38;;;;;;;21.42;53.97;99122.09;7291150;19;132608;-42
2023/12/08 05:05:18;;;;;;;257.37;10.00;;;;;;;21.30;54.30;99086.66;7292330;19;130123;-37
2023/12/08 05:07:44;;;;;;;214.33;8.40;;;;;;;21.44;54.39;99112.28;7288264;19;129319;-36
2023/12/08 05:10:09;;;;;;;255.60;9.75;;;;;;;21.42;54.54;99116.84;7290572;19;130992;-39
2023/12/08 05:12:35;;;;;;;252.73;9.98;;;;;;;21.39;54.40;99109.28;7291297;19;130714;-41
2023/12/08 05:15:00;;;;;;;283.30;10.83;;;;;;;21.41;54.14;99113.41;7293288;19;132455;-39
2023/12/08 05:17:26;;;;;;;216.23;8.53;;;;;;;21.38;53.99;99111.09;7285793;19;129753;-37
2023/12/08 05:19:51;;;;;;;154.43;6.30;;;;;;;21.38;54.71;99102.41;7291280;19;133045;-40
2023/12/08 05:22:17;;;;;;;300.97;12.13;;;;;;;21.40;54.05;99119.59;7288028;19;129340;-40
2023/12/08 05:24:42;;;;;;;293.37;11.23;;;;;;;21.37;54.27;99119.88;7290126;19;129215;-39
2023/12/08 05:27:08;;;;;;;253.23;10.55;;;;;;;21.38;54.20;99116.31;7287865;19;130332;-38
2023/12/08 05:29:33;;;;;;;256.75;10.13;;;;;;;21.37;54.74;99126.94;7286171;19;131333;-41
2023/12/08 05:31:58;;;;;;;260.20;9.90;;;;;;;21.39;54.54;99133.66;7290839;19;129414;-37
2023/12/08 05:34:24;;;;;;;240.93;9.68;;;;;;;21.32;54.64;99116.91;7290154;19;130031;-40
2023/12/08 05:36:49;;;;;;;194.05;7.90;;;;;;;21.39;54.13;99131.03;7287353;19;129869;-42
2023/12/08 05:39:16;;;;;;;191.00;7.57;;;;;;;21.19;54.78;99106.00;7286337;19;130660;-40
2023/12/08 05:41:41;;;;;;;397.02;15.90;;;;;;;21.38;54.14;99129.41;7287861;19;130753;-40
2023/12/08 05:44:06;;;;;;;232.50;9.37;;;;;;;21.32;54.26;99119.50;7291614;19;130484;-39
2023/12/08 05:46:32;;;;;;;232.50;9.13;;;;;;;21.36;54.37;99139.19;7279952;19;129650;-41
2023/12/08 05:48:57;;;;;;;186.25;7.65;;;;;;;21.34;54.82;99140.28;7286543;19;130003;-41
2023/12/08 05:51:23;;;;;;;278.48;10.82;;;;;;;21.25;54.22;99105.41;7288162;19;129121;-36
2023/12/08 05:53:48;;;;;;;356.98;14.88;;;;;;;21.35;54.29;99111.41;7288084;19;129887;-38
2023/12/08 05:56:14;;;;;;;228.00;9.43;;;;;;;21.41;54.06;99099.50;7286522;19;130883;-37
2023/12/08 05:58:39;;;;;;;230.87;10.97;;;;;;;21.43;55.67;99090.53;7286802;19;130803;-40
2023/12/08 06:01:05;;;;;;;409.92;17.60;;;;;;;21.44;55.20;99100.03;7283847;19;130081;-39
2023/12/08 06:03:30;;;;;;;219.32;9.65;;;;;;;21.37;54.61;99085.91;7290373;19;130455;-41
2023/12/08 06:05:55;;;;;;;242.33;10.87;;;;;;;21.37;54.91;99103.41;7288175;19;130210;-40
2023/12/08 06:08:21;;;;;;;235.90;9.75;;;;;;;21.37;55.13;99104.19;7286208;19;130441;-40
2023/12/08 06:10:46;;;;;;;258.77;11.57;;;;;;;21.36;54.81;99093.91;7287418;19;129991;-40
2023/12/08 06:13:13;;;;;;;187.07;8.40;;;;;;;21.35;55.42;99100.94;7289873;19;129040;-39
2023/12/08 06:15:39;;;;;;;256.13;10.93;;;;;;;21.37;55.18;99093.75;7285530;19;130848;-39
2023/12/08 06:18:04;;;;;;;307.48;12.82;;;;;;;21.37;54.81;99098.97;7284061;19;133410;-41
2023/12/08 06:20:30;;;;;;;219.30;9.95;;;;;;;21.36;55.22;99092.13;7286203;19;129753;-39
2023/12/08 06:22:55;;;;;;;244.87;10.43;;;;;;;21.34;54.89;99077.53;7289015;19;129494;-39
2023/12/08 06:25:21;;;;;;;214.57;9.82;;;;;;;21.32;55.00;99075.06;7284446;19;130277;-38
2023/12/08 06:27:46;;;;;;;284.15;13.15;;;;;;;21.37;55.17;99085.91;7285501;19;130366;-41
2023/12/08 06:30:12;;;;;;;192.02;8.23;;;;;;;21.35;53.95;99085.25;7289042;19;129144;-38
2023/12/08 06:32:37;;;;;;;218.95;9.98;;;;;;;21.33;53.42;99088.97;7294631;19;129262;-34
2023/12/08 06:35:03;;;;;;;243.97;11.07;;;;;;;21.33;53.78;99087.19;7284544;19;129678;-39
2023/12/08 06:37:29;;;;;;;371.20;15.63;;;;;;;21.41;53.42;99068.94;7274094;19;130755;-39
2023/12/08 06:39:54;;;;;;;343.67;15.17;;;;;;;21.38;53.64;99084.94;7275100;19;130964;-36
2023/12/08 06:42:19;;;;;;;359.48;14.60;;;;;;;21.39;53.46;99077.91;7276516;19;131985;-36
2023/12/08 06:44:45;;;;;;;394.27;16.75;;;;;;;21.27;54.17;99066.84;7268958;19;130752;-38
2023/12/08 06:47:10;;;;;;;342.45;13.68;;;;;;;21.40;54.25;99087.41;7274204;19;130862;-39
2023/12/08 06:49:35;;;;;;;320.55;12.60;;;;;;;21.44;54.26;99102.63;7274691;19;131275;-38
2023/12/08 06:52:04;;;;;;;327.38;13.50;;;;;;;21.46;53.91;99100.69;7271408;19;130510;-38
2023/12/08 06:54:30;;;;;;;326.15;14.02;;;;;;;21.44;53.96;99100.03;7274526;19;130845;-39
2023/12/08 06:56:56;;;;;;;405.65;16.55;;;;;;;21.47;54.33;99099.72;7273969;19;131751;-41
2023/12/08 06:59:21;;;;;;;306.85;12.45;;;;;;;21.45;54.44;99101.66;7276464;19;131118;-36
2023/12/08 07:01:46;;;;;;;339.17;13.43;;;;;;;21.47;54.07;99089.25;7275002;19;131924;-37
2023/12/08 07:04:12;;;;;;;331.93;13.40;;;;;;;21.45;54.41;99087.78;7275605;19;134380;-41
2023/12/08 07:06:37;;;;;;;355.95;14.35;;;;;;;21.44;54.86;99083.50;7274338;19;131664;-37
2023/12/08 07:09:03;;;;;;;301.97;13.03;;;;;;;21.42;54.17;99083.66;7273967;19;130694;-39
2023/12/08 07:11:28;;;;;;;339.33;13.60;;;;;;;21.42;54.48;99078.41;7273687;19;130588;-41
2023/12/08 07:13:53;;;;;;;387.63;15.27;;;;;;;21.39;54.51;99081.34;7275371;19;134197;-41
2023/12/08 07:16:19;;;;;;;357.17;14.98;;;;;;;21.41;54.29;99075.97;7275279;19;131186;-37
2023/12/08 07:18:45;;;;;;;282.38;11.32;;;;;;;21.40;54.94;99082.19;7272412;19;131269;-40
2023/12/08 07:21:11;;;;;;;327.40;13.27;;;;;;;21.39;55.15;99086.56;7274657;19;129796;-37
2023/12/08 07:23:36;;;;;;;393.55;15.50;;;;;;;21.41;54.41;99076.78;7274549;19;130874;-38
2023/12/08 07:26:03;;;;;;;360.00;14.18;;;;;;;21.40;54.85;99059.44;7274959;19;131137;-37
2023/12/08 07:28:28;;;;;;;319.25;12.98;;;;;;;21.38;55.04;99053.56;7269400;19;130745;-40
2023/12/08 07:30:54;;;;;;;350.38;13.95;;;;;;;21.36;55.17;99049.44;7272313;19;130650;-39
2023/12/08 07:33:20;;;;;;;404.27;16.10;;;;;;;21.39;54.44;99044.72;7274356;19;130598;-39
2023/12/08 07:35:46;;;;;;;299.50;12.07;;;;;;;21.39;54.33;99042.13;7276886;19;130480;-36
2023/12/08 07:38:11;;;;;;;331.95;13.05;;;;;;;21.42;54.45;99041.81;7272392;19;129338;-37
2023/12/08 07:40:36;;;;;;;333.08;12.88;;;;;;;21.38;55.08;99043.09;7273023;19;132382;-41
2023/12/08 07:43:02;;;;;;;366.17;14.52;;;;;;;21.36;54.90;99037.19;7273623;19;130518;-39
2023/12/08 07:45:27;;;;;;;289.73;11.73;;;;;;;21.39;54.48;99038.69;7274796;19;130840;-39
2023/12/08 07:47:53;;;;;;;306.38;12.32;;;;;;;21.35;55.10;99038.19;7271779;19;130711;-47
2023/12/08 07:50:18;;;;;;;343.10;13.55;;;;;;;21.40;54.43;99041.13;7275820;19;130688;-42
2023/12/08 07:52:44;;;;;;;356.30;14.25;;;;;;;21.36;54.29;99044.22;7281060;19;130209;-39
2023/12/08 07:55:09;;;;;;;324.30;12.50;;;;;;;21.34;54.69;99040.91;7280507;19;131162;-41
2023/12/08 07:57:35;;;;;;;307.58;12.20;;;;;;;21.31;54.65;99042.06;7277901;19;130214;-36
2023/12/08 08:00:00;;;;;;;383.60;15.05;;;;;;;21.32;54.65;99043.69;7279552;19;132590;-37
2023/12/08 08:02:26;;;;;;;348.20;13.30;;;;;;;21.36;54.76;99047.66;7281047;19;131742;-35
2023/12/08 08:04:51;;;;;;;321.73;12.63;;;;;;;21.32;54.28;99048.91;7282162;19;132670;-37
2023/12/08 08:07:17;;;;;;;309.05;12.07;;;;;;;21.29;54.68;99057.06;7280305;19;129979;-37
2023/12/08 08:09:42;;;;;;;383.55;15.13;;;;;;;21.31;54.58;99047.28;7281698;19;132594;-42
2023/12/08 08:12:09;;;;;;;321.10;12.43;;;;;;;21.32;54.74;99045.50;7279071;19;130515;-39
2023/12/08 08:14:34;;;;;;;259.40;10.30;;;;;;;21.28;54.50;99033.69;7280331;19;130824;-37
2023/12/08 08:16:59;;;;;;;328.35;12.73;;;;;;;21.23;54.73;99034.16;7280741;19;131144;-38
2023/12/08 08:19:25;;;;;;;399.05;15.38;;;;;;;21.27;54.20;99040.72;7279286;19;130562;-35
2023/12/08 08:21:51;;;;;;;309.40;11.98;;;;;;;21.28;54.36;99047.59;7282602;19;131345;-40
2023/12/08 08:24:16;;;;;;;316.45;12.27;;;;;;;21.27;54.43;99027.63;7281062;19;131413;-37
2023/12/08 08:26:42;;;;;;;314.50;12.55;;;;;;;21.27;54.21;99043.31;7279383;19;131086;-38
2023/12/08 08:29:08;;;;;;;357.73;14.10;;;;;;;21.13;54.09;99017.72;7278842;19;131494;-37
2023/12/08 08:31:33;;;;;;;314.20;12.07;;;;;;;21.29;53.89;99041.38;7280725;19;131501;-40
2023/12/08 08:33:58;;;;;;;356.00;14.25;;;;;;;21.30;54.13;99048.28;7281018;19;130615;-40
2023/12/08 08:36:25;;;;;;;339.27;13.45;;;;;;;21.25;54.20;99042.69;7278244;19;130226;-41
2023/12/08 08:38:51;;;;;;;;;;;;;;;21.23;55.46;99039.38;7279564;19;129325;-38
2023/12/08 08:41:17;;;;;;;298.15;11.40;;;;;;;21.25;54.57;99042.69;7280835;19;130485;-39
2023/12/08 08:43:42;;;;;;;307.00;12.10;;;;;;;21.26;54.25;99048.69;7281014;19;132534;-39
2023/12/08 08:46:07;;;;;;;376.90;14.82;;;;;;;21.21;54.04;99054.38;7280687;19;131114;-40
2023/12/08 08:48:33;;;;;;;273.98;10.68;;;;;;;21.22;53.96;99042.94;7278336;19;130778;-40
2023/12/08 08:50:58;;;;;;;332.23;13.05;;;;;;;21.28;53.81;99047.59;7278972;19;131498;-40
2023/12/08 08:53:24;;;;;;;274.55;10.75;;;;;;;21.29;54.53;99044.00;7280340;19;131051;-38
2023/12/08 08:55:49;;;;;;;364.48;13.65;;;;;;;21.26;54.54;99048.69;7278970;19;131433;-40
2023/12/08 08:58:15;;;;;;;337.55;13.00;;;;;;;21.28;54.20;99052.81;7277602;19;130226;-38
2023/12/08 09:00:40;;;;;;;332.80;12.77;;;;;;;21.25;54.23;99053.13;7279230;19;130911;-36
2023/12/08 09:03:06;;;;;;;322.83;12.33;;;;;;;21.27;54.36;99056.41;7278997;19;130380;-37
2023/12/08 09:05:32;;;;;;;371.95;14.30;;;;;;;21.22;54.18;99050.00;7279513;19;131647;-38
2023/12/08 09:07:58;;;;;;;;;;;;;;;21.26;55.41;99065.22;7279748;19;132934;-36
2023/12/08 09:10:23;;;;;;;296.10;11.25;;;;;;;21.24;54.33;99054.09;7278124;19;131456;-39
2023/12/08 09:12:48;;;;;;;314.08;12.25;;;;;;;21.25;54.56;99065.38;7280648;19;130364;-41
2023/12/08 09:15:14;;;;;;;308.97;12.03;;;;;;;21.07;54.23;99034.03;7278282;19;130189;-40
2023/12/08 09:17:40;;;;;;;294.38;11.50;;;;;;;21.18;53.86;99057.31;7278939;19;131480;-42
2023/12/08 09:20:08;;;;;;;321.83;12.60;;;;;;;21.20;54.15;99059.78;7274734;19;130991;-39
2023/12/08 09:22:35;;;;;;;316.48;11.82;;;;;;;21.22;54.50;99057.84;7278553;19;132963;-40
2023/12/08 09:25:01;;;;;;;397.42;15.10;;;;;;;21.21;54.45;99057.00;7279193;19;132571;-40
2023/12/08 09:27:26;;;;;;;278.00;10.75;;;;;;;21.22;54.41;99048.19;7278888;19;132211;-38
2023/12/08 09:29:52;;;;;;;306.40;11.73;;;;;;;21.14;54.25;99045.50;7279607;19;130371;-41
2023/12/08 09:32:17;;;;;;;327.10;12.23;;;;;;;21.16;53.89;99035.72;7275588;19;131137;-37
2023/12/08 09:34:43;;;;;;;344.30;13.20;;;;;;;21.18;53.83;99039.00;7279213;19;130025;-42
2023/12/08 09:37:08;;;;;;;327.47;12.87;;;;;;;21.14;53.89;99040.28;7278703;19;130762;-40
2023/12/08 09:39:33;;;;;;;314.45;11.82;;;;;;;21.14;54.08;99035.03;7279094;19;130403;-42
2023/12/08 09:42:06;;;;;;;349.88;13.70;;;;;;;21.17;54.88;99024.28;7278809;19;130387;-41
2023/12/08 09:44:32;;;;;;;353.75;13.65;;;;;;;21.14;54.11;99021.19;7278187;19;130881;-39
2023/12/08 09:47:03;;;;;;;312.35;12.02;;;;;;;21.13;54.62;99022.97;7279021;19;129554;-39
2023/12/08 09:49:36;;;;;;;254.32;9.98;;;;;;;21.14;53.95;99021.97;7279296;19;131187;-38
2023/12/08 09:52:02;;;;;;;271.33;10.60;;;;;;;21.12;54.05;99010.03;7276303;19;131242;-39
2023/12/08 09:54:28;;;;;;;369.55;13.88;;;;;;;21.06;54.44;98995.78;7278381;19;130458;-41
2023/12/08 09:56:54;;;;;;;351.60;13.37;;;;;;;21.16;54.52;99012.19;7278113;19;131088;-38
2023/12/08 09:59:26;;;;;;;303.50;11.43;;;;;;;21.17;54.18;99005.97;7278606;19;129500;-40
2023/12/08 10:01:52;;;;;;;334.98;12.95;;;;;;;21.19;54.37;99006.66;7276530;19;131226;-37
2023/12/08 10:04:17;;;;;;;340.27;13.10;;;;;;;21.08;54.56;99009.53;7277859;19;131822;-37
2023/12/08 10:06:43;;;;;;;343.00;12.70;;;;;;;20.93;54.49;98978.78;7278082;19;129887;-38
2023/12/08 10:09:11;;;;;;;286.15;11.52;;;;;;;21.11;54.67;99001.38;7277093;19;130767;-37
2023/12/08 10:11:38;;;;;;;288.48;10.93;;;;;;;21.11;54.32;99001.38;7279398;19;131515;-39
2023/12/08 10:14:04;;;;;;;325.85;12.55;;;;;;;21.11;53.96;98988.31;7279689;19;129715;-36
2023/12/08 10:16:30;;;;;;;298.20;11.88;;;;;;;21.13;54.62;98981.13;7279111;19;130644;-35
2023/12/08 10:19:05;;;;;;;332.90;12.95;;;;;;;21.09;54.92;98974.56;7276399;19;130607;-37
2023/12/08 10:21:31;;;;;;;264.42;10.38;;;;;;;21.08;54.04;98983.38;7279643;19;131106;-38
2023/12/08 10:24:00;;;;;;;283.90;10.80;;;;;;;21.00;54.13;98948.53;7278458;19;131339;-39
2023/12/08 10:26:26;;;;;;;425.27;16.85;;;;;;;21.11;54.52;98964.78;7278448;19;130660;-39
2023/12/08 10:28:55;;;;;;;279.48;10.70;;;;;;;21.09;54.79;98953.66;7278754;19;131847;-38
2023/12/08 10:31:21;;;;;;;264.38;10.10;;;;;;;21.13;54.21;98948.94;7278071;19;130365;-40
2023/12/08 10:33:48;;;;;;;257.45;9.90;;;;;;;20.98;54.44;98930.38;7281033;19;131749;-40
2023/12/08 10:36:13;;;;;;;402.02;15.68;;;;;;;21.13;54.06;98938.50;7278789;19;130936;-40
2023/12/08 10:38:39;;;;;;;302.38;11.45;;;;;;;21.12;54.66;98942.88;7278401;19;129607;-38
2023/12/08 10:41:05;;;;;;;327.58;12.35;;;;;;;21.10;54.30;98944.03;7278018;19;131393;-40
2023/12/08 10:43:30;;;;;;;256.10;9.82;;;;;;;21.13;54.43;98928.84;7279440;19;130747;-42
2023/12/08 10:45:55;;;;;;;382.02;14.50;;;;;;;21.11;54.70;98922.97;7279246;19;130698;-41
2023/12/08 10:48:22;;;;;;;271.73;10.63;;;;;;;21.06;54.14;98927.00;7278263;19;129975;-40
2023/12/08 10:50:52;;;;;;;273.75;10.45;;;;;;;21.06;54.74;98933.03;7278775;19;130413;-38
2023/12/08 10:53:19;;;;;;;324.38;12.20;;;;;;;21.08;54.62;98920.66;7276648;19;131189;-41
2023/12/08 10:55:52;;;;;;;370.20;13.73;;;;;;;21.00;55.12;98918.00;7279133;19;130382;-37
2023/12/08 10:58:20;;;;;;;301.13;11.65;;;;;;;21.07;54.28;98919.03;7277649;19;132549;-35